sensor_id;sensor_type;location;lat;lon;timestamp;pressure;altitude;pressure_sealevel;temperature;humidity
39954;BME280;25631;51.516;-0.470;2023-07-13T00:00:05;101210.74;;;17.01;34.96
39954;BME280;25631;51.516;-0.470;2023-07-13T00:02:43;101212.03;;;16.87;34.87
39954;BME280;25631;51.516;-0.470;2023-07-13T00:05:20;101209.13;;;16.71;35.04
39954;BME280;25631;51.516;-0.470;2023-07-13T00:07:57;101210.39;;;16.45;35.34
39954;BME280;25631;51.516;-0.470;2023-07-13T00:10:33;101210.08;;;16.54;35.42
39954;BME280;25631;51.516;-0.470;2023-07-13T00:13:10;101206.90;;;16.79;35.35
39954;BME280;25631;51.516;-0.470;2023-07-13T00:15:46;101209.30;;;16.71;35.16
39954;BME280;25631;51.516;-0.470;2023-07-13T00:18:24;101205.99;;;16.75;35.15
39954;BME280;25631;51.516;-0.470;2023-07-13T00:21:00;101207.05;;;16.56;35.21
39954;BME280;25631;51.516;-0.470;2023-07-13T00:23:38;101207.79;;;16.76;35.25
39954;BME280;25631;51.516;-0.470;2023-07-13T00:26:15;101208.10;;;16.39;35.42
39954;BME280;25631;51.516;-0.470;2023-07-13T00:28:51;101209.02;;;16.62;35.62
39954;BME280;25631;51.516;-0.470;2023-07-13T00:31:28;101209.04;;;16.61;35.33
39954;BME280;25631;51.516;-0.470;2023-07-13T00:34:04;101211.07;;;16.57;35.51
39954;BME280;25631;51.516;-0.470;2023-07-13T00:36:41;101212.64;;;16.52;35.57
39954;BME280;25631;51.516;-0.470;2023-07-13T00:39:17;101217.05;;;16.69;35.43
39954;BME280;25631;51.516;-0.470;2023-07-13T00:41:54;101220.11;;;16.58;35.47
39954;BME280;25631;51.516;-0.470;2023-07-13T00:44:30;101218.25;;;16.65;35.44
39954;BME280;25631;51.516;-0.470;2023-07-13T00:47:10;101216.99;;;16.72;35.40
39954;BME280;25631;51.516;-0.470;2023-07-13T00:49:46;101217.45;;;16.67;35.33
39954;BME280;25631;51.516;-0.470;2023-07-13T00:52:23;101219.46;;;16.58;35.21
39954;BME280;25631;51.516;-0.470;2023-07-13T00:55:00;101221.83;;;17.05;35.18
39954;BME280;25631;51.516;-0.470;2023-07-13T00:57:36;101220.88;;;16.56;35.44
39954;BME280;25631;51.516;-0.470;2023-07-13T01:00:14;101216.02;;;16.50;35.33
39954;BME280;25631;51.516;-0.470;2023-07-13T01:02:50;101217.61;;;16.53;35.29
39954;BME280;25631;51.516;-0.470;2023-07-13T01:05:27;101221.97;;;16.73;35.30
39954;BME280;25631;51.516;-0.470;2023-07-13T01:08:04;101225.12;;;16.46;35.53
39954;BME280;25631;51.516;-0.470;2023-07-13T01:10:40;101226.57;;;16.80;35.70
39954;BME280;25631;51.516;-0.470;2023-07-13T01:13:17;101225.46;;;16.25;35.93
39954;BME280;25631;51.516;-0.470;2023-07-13T01:15:58;101226.25;;;16.72;35.97
39954;BME280;25631;51.516;-0.470;2023-07-13T01:18:37;101226.91;;;16.29;36.14
39954;BME280;25631;51.516;-0.470;2023-07-13T01:21:13;101224.50;;;16.11;36.54
39954;BME280;25631;51.516;-0.470;2023-07-13T01:23:50;101220.89;;;16.36;36.62
39954;BME280;25631;51.516;-0.470;2023-07-13T01:26:26;101219.96;;;15.90;36.77
39954;BME280;25631;51.516;-0.470;2023-07-13T01:29:03;101220.85;;;16.01;37.10
39954;BME280;25631;51.516;-0.470;2023-07-13T01:31:39;101222.28;;;16.10;37.12
39954;BME280;25631;51.516;-0.470;2023-07-13T01:34:16;101221.01;;;15.89;37.24
39954;BME280;25631;51.516;-0.470;2023-07-13T01:36:52;101221.94;;;15.95;37.46
39954;BME280;25631;51.516;-0.470;2023-07-13T01:39:28;101221.55;;;15.83;37.53
39954;BME280;25631;51.516;-0.470;2023-07-13T01:42:05;101218.84;;;15.95;37.53
39954;BME280;25631;51.516;-0.470;2023-07-13T01:44:41;101218.90;;;15.73;37.80
39954;BME280;25631;51.516;-0.470;2023-07-13T01:47:18;101218.53;;;15.40;38.31
39954;BME280;25631;51.516;-0.470;2023-07-13T01:49:54;101219.50;;;15.35;38.48
39954;BME280;25631;51.516;-0.470;2023-07-13T01:52:31;101216.68;;;15.24;38.83
39954;BME280;25631;51.516;-0.470;2023-07-13T01:55:08;101214.40;;;14.78;38.94
39954;BME280;25631;51.516;-0.470;2023-07-13T01:57:44;101214.55;;;15.11;38.71
39954;BME280;25631;51.516;-0.470;2023-07-13T02:00:21;101213.71;;;15.39;38.64
39954;BME280;25631;51.516;-0.470;2023-07-13T02:02:57;101211.40;;;15.02;38.88
39954;BME280;25631;51.516;-0.470;2023-07-13T02:05:34;101210.87;;;14.67;39.01
39954;BME280;25631;51.516;-0.470;2023-07-13T02:08:10;101211.86;;;15.01;39.02
39954;BME280;25631;51.516;-0.470;2023-07-13T02:10:48;101212.44;;;14.64;39.17
39954;BME280;25631;51.516;-0.470;2023-07-13T02:13:24;101208.72;;;14.95;39.20
39954;BME280;25631;51.516;-0.470;2023-07-13T02:16:00;101207.63;;;14.51;39.26
39954;BME280;25631;51.516;-0.470;2023-07-13T02:18:37;101202.31;;;15.01;39.16
39954;BME280;25631;51.516;-0.470;2023-07-13T02:21:14;101204.70;;;14.84;39.43
39954;BME280;25631;51.516;-0.470;2023-07-13T02:23:50;101205.84;;;14.76;39.46
39954;BME280;25631;51.516;-0.470;2023-07-13T02:26:27;101207.67;;;14.98;39.41
39954;BME280;25631;51.516;-0.470;2023-07-13T02:29:04;101203.16;;;14.83;39.46
39954;BME280;25631;51.516;-0.470;2023-07-13T02:31:40;101198.94;;;14.87;39.41
39954;BME280;25631;51.516;-0.470;2023-07-13T02:34:17;101198.59;;;14.51;39.32
39954;BME280;25631;51.516;-0.470;2023-07-13T02:36:53;101200.29;;;14.67;39.30
39954;BME280;25631;51.516;-0.470;2023-07-13T02:39:30;101200.27;;;15.00;39.41
39954;BME280;25631;51.516;-0.470;2023-07-13T02:42:06;101200.33;;;14.84;39.58
39954;BME280;25631;51.516;-0.470;2023-07-13T02:44:43;101202.98;;;14.89;39.51
39954;BME280;25631;51.516;-0.470;2023-07-13T02:47:19;101203.31;;;14.60;39.76
39954;BME280;25631;51.516;-0.470;2023-07-13T02:49:56;101201.22;;;14.49;39.65
39954;BME280;25631;51.516;-0.470;2023-07-13T02:52:32;101202.73;;;14.77;39.69
39954;BME280;25631;51.516;-0.470;2023-07-13T02:55:09;101202.37;;;14.39;39.61
39954;BME280;25631;51.516;-0.470;2023-07-13T02:57:46;101204.77;;;14.77;39.63
39954;BME280;25631;51.516;-0.470;2023-07-13T03:00:23;101206.89;;;14.35;39.82
39954;BME280;25631;51.516;-0.470;2023-07-13T03:02:59;101201.62;;;14.72;39.62
39954;BME280;25631;51.516;-0.470;2023-07-13T03:05:37;101205.10;;;14.60;39.53
39954;BME280;25631;51.516;-0.470;2023-07-13T03:08:14;101205.93;;;14.63;39.40
39954;BME280;25631;51.516;-0.470;2023-07-13T03:10:59;101206.96;;;14.98;39.50
39954;BME280;25631;51.516;-0.470;2023-07-13T03:13:36;101205.76;;;14.69;39.58
39954;BME280;25631;51.516;-0.470;2023-07-13T03:16:13;101210.12;;;14.94;39.54
39954;BME280;25631;51.516;-0.470;2023-07-13T03:18:49;101208.92;;;14.70;39.72
39954;BME280;25631;51.516;-0.470;2023-07-13T03:21:26;101211.43;;;14.80;39.59
39954;BME280;25631;51.516;-0.470;2023-07-13T03:24:03;101215.68;;;14.79;39.52
39954;BME280;25631;51.516;-0.470;2023-07-13T03:26:39;101220.75;;;14.59;39.49
39954;BME280;25631;51.516;-0.470;2023-07-13T03:29:15;101220.33;;;14.59;39.52
39954;BME280;25631;51.516;-0.470;2023-07-13T03:31:52;101219.14;;;14.92;39.58
39954;BME280;25631;51.516;-0.470;2023-07-13T03:34:28;101219.24;;;14.78;39.80
39954;BME280;25631;51.516;-0.470;2023-07-13T03:37:05;101222.31;;;14.63;39.75
39954;BME280;25631;51.516;-0.470;2023-07-13T03:39:41;101219.96;;;14.69;39.80
39954;BME280;25631;51.516;-0.470;2023-07-13T03:42:18;101221.37;;;14.68;39.84
39954;BME280;25631;51.516;-0.470;2023-07-13T03:44:54;101221.16;;;14.70;39.85
39954;BME280;25631;51.516;-0.470;2023-07-13T03:47:31;101222.96;;;14.70;40.01
39954;BME280;25631;51.516;-0.470;2023-07-13T03:50:08;101228.22;;;14.73;39.99
39954;BME280;25631;51.516;-0.470;2023-07-13T03:52:44;101225.77;;;14.66;40.26
39954;BME280;25631;51.516;-0.470;2023-07-13T03:55:21;101224.97;;;14.85;40.01
39954;BME280;25631;51.516;-0.470;2023-07-13T03:58:01;101224.23;;;14.71;39.97
39954;BME280;25631;51.516;-0.470;2023-07-13T04:00:59;101229.86;;;14.84;39.95
39954;BME280;25631;51.516;-0.470;2023-07-13T04:03:37;101232.43;;;14.78;39.81
39954;BME280;25631;51.516;-0.470;2023-07-13T04:06:16;101234.91;;;15.00;39.71
39954;BME280;25631;51.516;-0.470;2023-07-13T04:08:54;101238.60;;;14.91;39.70
39954;BME280;25631;51.516;-0.470;2023-07-13T04:11:32;101240.32;;;15.09;39.71
39954;BME280;25631;51.516;-0.470;2023-07-13T04:14:09;101243.95;;;14.97;39.71
39954;BME280;25631;51.516;-0.470;2023-07-13T04:16:46;101245.87;;;14.77;39.71
39954;BME280;25631;51.516;-0.470;2023-07-13T04:19:22;101244.83;;;14.68;39.69
39954;BME280;25631;51.516;-0.470;2023-07-13T04:21:59;101241.24;;;14.71;39.67
39954;BME280;25631;51.516;-0.470;2023-07-13T04:24:36;101246.44;;;14.88;39.58
39954;BME280;25631;51.516;-0.470;2023-07-13T04:27:12;101245.72;;;14.93;39.65
39954;BME280;25631;51.516;-0.470;2023-07-13T04:29:48;101246.33;;;14.96;39.68
39954;BME280;25631;51.516;-0.470;2023-07-13T04:32:25;101248.77;;;14.98;39.74
39954;BME280;25631;51.516;-0.470;2023-07-13T04:35:01;101254.55;;;14.89;39.76
39954;BME280;25631;51.516;-0.470;2023-07-13T04:37:38;101258.62;;;14.77;39.83
39954;BME280;25631;51.516;-0.470;2023-07-13T04:40:14;101257.22;;;14.90;39.91
39954;BME280;25631;51.516;-0.470;2023-07-13T04:42:51;101256.14;;;14.83;40.00
39954;BME280;25631;51.516;-0.470;2023-07-13T04:45:27;101262.50;;;14.60;40.18
39954;BME280;25631;51.516;-0.470;2023-07-13T04:48:04;101265.37;;;14.65;40.17
39954;BME280;25631;51.516;-0.470;2023-07-13T04:50:41;101263.99;;;14.60;40.17
39954;BME280;25631;51.516;-0.470;2023-07-13T04:53:17;101262.36;;;14.90;40.22
39954;BME280;25631;51.516;-0.470;2023-07-13T04:55:54;101266.96;;;14.70;40.23
39954;BME280;25631;51.516;-0.470;2023-07-13T04:58:32;101263.75;;;14.69;40.45
39954;BME280;25631;51.516;-0.470;2023-07-13T05:01:09;101267.07;;;14.81;40.44
39954;BME280;25631;51.516;-0.470;2023-07-13T05:03:46;101271.82;;;14.71;40.46
39954;BME280;25631;51.516;-0.470;2023-07-13T05:06:23;101272.53;;;14.72;40.57
39954;BME280;25631;51.516;-0.470;2023-07-13T05:08:59;101275.07;;;14.67;40.55
39954;BME280;25631;51.516;-0.470;2023-07-13T05:11:35;101276.98;;;14.47;40.83
39954;BME280;25631;51.516;-0.470;2023-07-13T05:14:12;101279.60;;;14.55;40.86
39954;BME280;25631;51.516;-0.470;2023-07-13T05:16:49;101278.25;;;14.27;40.92
39954;BME280;25631;51.516;-0.470;2023-07-13T05:19:25;101277.71;;;14.36;41.07
39954;BME280;25631;51.516;-0.470;2023-07-13T05:22:02;101279.41;;;14.55;41.06
39954;BME280;25631;51.516;-0.470;2023-07-13T05:24:39;101282.76;;;14.39;41.23
39954;BME280;25631;51.516;-0.470;2023-07-13T05:27:15;101289.43;;;14.45;40.98
39954;BME280;25631;51.516;-0.470;2023-07-13T05:29:52;101293.77;;;14.38;40.93
39954;BME280;25631;51.516;-0.470;2023-07-13T05:32:29;101294.30;;;14.56;41.13
39954;BME280;25631;51.516;-0.470;2023-07-13T05:35:06;101293.00;;;14.34;41.13
39954;BME280;25631;51.516;-0.470;2023-07-13T05:37:43;101293.93;;;14.36;41.20
39954;BME280;25631;51.516;-0.470;2023-07-13T05:40:19;101296.57;;;14.42;41.31
39954;BME280;25631;51.516;-0.470;2023-07-13T05:42:56;101296.28;;;14.71;41.19
39954;BME280;25631;51.516;-0.470;2023-07-13T05:45:32;101294.00;;;14.71;41.16
39954;BME280;25631;51.516;-0.470;2023-07-13T05:48:09;101296.50;;;14.80;41.05
39954;BME280;25631;51.516;-0.470;2023-07-13T05:50:46;101300.81;;;14.58;41.03
39954;BME280;25631;51.516;-0.470;2023-07-13T05:53:23;101303.80;;;14.76;40.81
39954;BME280;25631;51.516;-0.470;2023-07-13T05:55:59;101309.35;;;15.29;40.73
39954;BME280;25631;51.516;-0.470;2023-07-13T05:58:36;101315.31;;;15.28;40.67
39954;BME280;25631;51.516;-0.470;2023-07-13T06:01:14;101322.12;;;14.97;40.56
39954;BME280;25631;51.516;-0.470;2023-07-13T06:03:51;101327.18;;;14.96;40.33
39954;BME280;25631;51.516;-0.470;2023-07-13T06:06:28;101329.65;;;15.02;40.39
39954;BME280;25631;51.516;-0.470;2023-07-13T06:09:04;101328.85;;;15.20;40.30
39954;BME280;25631;51.516;-0.470;2023-07-13T06:11:40;101326.31;;;15.26;40.30
39954;BME280;25631;51.516;-0.470;2023-07-13T06:14:17;101330.86;;;15.45;40.26
39954;BME280;25631;51.516;-0.470;2023-07-13T06:16:53;101332.09;;;15.49;40.22
39954;BME280;25631;51.516;-0.470;2023-07-13T06:19:30;101333.96;;;15.44;40.15
39954;BME280;25631;51.516;-0.470;2023-07-13T06:22:06;101330.03;;;15.71;40.15
39954;BME280;25631;51.516;-0.470;2023-07-13T06:24:43;101331.65;;;15.88;39.93
39954;BME280;25631;51.516;-0.470;2023-07-13T06:27:19;101333.49;;;15.88;39.63
39954;BME280;25631;51.516;-0.470;2023-07-13T06:29:56;101339.52;;;15.92;39.43
39954;BME280;25631;51.516;-0.470;2023-07-13T06:32:33;101346.56;;;15.81;39.46
39954;BME280;25631;51.516;-0.470;2023-07-13T06:35:09;101350.66;;;15.81;39.67
39954;BME280;25631;51.516;-0.470;2023-07-13T06:37:46;101350.11;;;15.95;39.53
39954;BME280;25631;51.516;-0.470;2023-07-13T06:40:22;101348.79;;;16.12;39.46
39954;BME280;25631;51.516;-0.470;2023-07-13T06:42:59;101353.65;;;15.96;39.44
39954;BME280;25631;51.516;-0.470;2023-07-13T06:45:41;101350.19;;;16.12;39.31
39954;BME280;25631;51.516;-0.470;2023-07-13T06:48:18;101350.17;;;16.21;39.24
39954;BME280;25631;51.516;-0.470;2023-07-13T06:50:55;101355.41;;;16.26;38.99
39954;BME280;25631;51.516;-0.470;2023-07-13T06:53:31;101355.61;;;16.53;39.02
39954;BME280;25631;51.516;-0.470;2023-07-13T06:56:08;101356.23;;;15.96;38.88
39954;BME280;25631;51.516;-0.470;2023-07-13T06:58:44;101360.08;;;16.47;38.62
39954;BME280;25631;51.516;-0.470;2023-07-13T07:01:21;101365.43;;;16.36;38.74
39954;BME280;25631;51.516;-0.470;2023-07-13T07:03:57;101368.76;;;16.07;38.58
39954;BME280;25631;51.516;-0.470;2023-07-13T07:06:33;101373.15;;;16.44;38.50
39954;BME280;25631;51.516;-0.470;2023-07-13T07:09:10;101377.58;;;16.57;38.45
39954;BME280;25631;51.516;-0.470;2023-07-13T07:11:46;101373.73;;;16.54;38.40
39954;BME280;25631;51.516;-0.470;2023-07-13T07:14:23;101376.36;;;16.68;38.58
39954;BME280;25631;51.516;-0.470;2023-07-13T07:16:59;101372.57;;;16.68;38.50
39954;BME280;25631;51.516;-0.470;2023-07-13T07:19:36;101378.89;;;16.51;38.48
39954;BME280;25631;51.516;-0.470;2023-07-13T07:22:13;101380.11;;;16.72;38.50
39954;BME280;25631;51.516;-0.470;2023-07-13T07:24:49;101385.49;;;16.53;38.82
39954;BME280;25631;51.516;-0.470;2023-07-13T07:27:25;101388.57;;;16.88;38.55
39954;BME280;25631;51.516;-0.470;2023-07-13T07:30:03;101391.22;;;16.68;38.68
39954;BME280;25631;51.516;-0.470;2023-07-13T07:32:39;101390.84;;;16.71;38.65
39954;BME280;25631;51.516;-0.470;2023-07-13T07:35:15;101395.60;;;16.69;38.66
39954;BME280;25631;51.516;-0.470;2023-07-13T07:37:52;101391.96;;;17.01;38.36
39954;BME280;25631;51.516;-0.470;2023-07-13T07:40:29;101392.81;;;17.01;38.20
39954;BME280;25631;51.516;-0.470;2023-07-13T07:43:05;101400.73;;;16.83;38.21
39954;BME280;25631;51.516;-0.470;2023-07-13T07:45:43;101400.07;;;16.97;38.09
39954;BME280;25631;51.516;-0.470;2023-07-13T07:48:20;101403.59;;;17.06;38.28
39954;BME280;25631;51.516;-0.470;2023-07-13T07:50:57;101403.29;;;16.89;38.15
39954;BME280;25631;51.516;-0.470;2023-07-13T07:53:34;101407.83;;;17.17;38.11
39954;BME280;25631;51.516;-0.470;2023-07-13T07:56:10;101410.57;;;16.88;37.96
39954;BME280;25631;51.516;-0.470;2023-07-13T07:58:46;101407.80;;;16.99;37.67
39954;BME280;25631;51.516;-0.470;2023-07-13T08:01:23;101408.07;;;17.30;37.47
39954;BME280;25631;51.516;-0.470;2023-07-13T08:04:00;101410.26;;;17.32;37.49
39954;BME280;25631;51.516;-0.470;2023-07-13T08:06:36;101411.43;;;17.17;37.50
39954;BME280;25631;51.516;-0.470;2023-07-13T08:09:13;101412.78;;;17.46;37.44
39954;BME280;25631;51.516;-0.470;2023-07-13T08:11:49;101412.43;;;17.56;37.34
39954;BME280;25631;51.516;-0.470;2023-07-13T08:14:26;101411.62;;;17.51;37.45
39954;BME280;25631;51.516;-0.470;2023-07-13T08:17:02;101410.41;;;17.59;37.45
39954;BME280;25631;51.516;-0.470;2023-07-13T08:19:39;101408.81;;;17.72;37.50
39954;BME280;25631;51.516;-0.470;2023-07-13T08:22:16;101407.54;;;17.43;37.13
39954;BME280;25631;51.516;-0.470;2023-07-13T08:24:52;101406.25;;;17.41;37.11
39954;BME280;25631;51.516;-0.470;2023-07-13T08:27:29;101404.83;;;17.52;37.18
39954;BME280;25631;51.516;-0.470;2023-07-13T08:30:06;101404.56;;;17.49;37.19
39954;BME280;25631;51.516;-0.470;2023-07-13T08:32:43;101405.54;;;17.13;36.83
39954;BME280;25631;51.516;-0.470;2023-07-13T08:35:20;101404.22;;;17.47;36.68
39954;BME280;25631;51.516;-0.470;2023-07-13T08:37:56;101400.40;;;17.52;36.77
39954;BME280;25631;51.516;-0.470;2023-07-13T08:40:34;101402.03;;;17.28;36.62
39954;BME280;25631;51.516;-0.470;2023-07-13T08:43:15;101402.07;;;17.41;36.39
39954;BME280;25631;51.516;-0.470;2023-07-13T08:45:56;101398.26;;;17.72;36.34
39954;BME280;25631;51.516;-0.470;2023-07-13T08:48:36;101397.76;;;17.50;36.13
39954;BME280;25631;51.516;-0.470;2023-07-13T08:51:26;101400.99;;;17.52;36.15
39954;BME280;25631;51.516;-0.470;2023-07-13T08:54:09;101398.07;;;17.84;36.17
39954;BME280;25631;51.516;-0.470;2023-07-13T08:56:49;101401.59;;;17.78;36.29
39954;BME280;25631;51.516;-0.470;2023-07-13T08:59:28;101395.93;;;17.76;36.28
39954;BME280;25631;51.516;-0.470;2023-07-13T09:02:20;101403.58;;;17.81;35.96
39954;BME280;25631;51.516;-0.470;2023-07-13T09:05:01;101400.60;;;17.55;36.04
39954;BME280;25631;51.516;-0.470;2023-07-13T09:07:56;101401.77;;;17.77;35.93
39954;BME280;25631;51.516;-0.470;2023-07-13T09:10:40;101405.85;;;17.72;35.80
39954;BME280;25631;51.516;-0.470;2023-07-13T09:13:24;101403.86;;;17.70;35.70
39954;BME280;25631;51.516;-0.470;2023-07-13T09:16:05;101409.65;;;17.88;35.80
39954;BME280;25631;51.516;-0.470;2023-07-13T09:18:45;101406.71;;;18.08;35.48
39954;BME280;25631;51.516;-0.470;2023-07-13T09:21:27;101407.36;;;17.91;34.88
39954;BME280;25631;51.516;-0.470;2023-07-13T09:24:29;101407.15;;;17.96;35.00
39954;BME280;25631;51.516;-0.470;2023-07-13T09:27:15;101409.66;;;18.19;35.22
39954;BME280;25631;51.516;-0.470;2023-07-13T09:29:58;101411.14;;;18.36;34.96
39954;BME280;25631;51.516;-0.470;2023-07-13T09:32:39;101410.60;;;18.52;35.14
39954;BME280;25631;51.516;-0.470;2023-07-13T09:35:19;101415.37;;;18.30;34.81
39954;BME280;25631;51.516;-0.470;2023-07-13T09:38:03;101415.88;;;18.35;34.63
39954;BME280;25631;51.516;-0.470;2023-07-13T09:40:55;101414.04;;;18.19;34.79
39954;BME280;25631;51.516;-0.470;2023-07-13T09:43:33;101411.43;;;18.73;34.64
39954;BME280;25631;51.516;-0.470;2023-07-13T09:46:21;101410.70;;;18.19;34.51
39954;BME280;25631;51.516;-0.470;2023-07-13T09:48:57;101407.89;;;18.67;34.43
39954;BME280;25631;51.516;-0.470;2023-07-13T09:51:34;101408.10;;;18.82;34.23
39954;BME280;25631;51.516;-0.470;2023-07-13T09:54:20;101412.69;;;18.80;34.33
39954;BME280;25631;51.516;-0.470;2023-07-13T09:56:57;101411.30;;;18.81;33.98
39954;BME280;25631;51.516;-0.470;2023-07-13T09:59:41;101413.26;;;18.64;34.10
39954;BME280;25631;51.516;-0.470;2023-07-13T10:02:28;101414.21;;;18.67;34.27
39954;BME280;25631;51.516;-0.470;2023-07-13T10:05:13;101415.32;;;18.44;34.38
39954;BME280;25631;51.516;-0.470;2023-07-13T10:07:50;101422.06;;;18.60;34.20
39954;BME280;25631;51.516;-0.470;2023-07-13T10:10:26;101427.03;;;18.99;34.20
39954;BME280;25631;51.516;-0.470;2023-07-13T10:13:03;101425.54;;;18.91;34.26
39954;BME280;25631;51.516;-0.470;2023-07-13T10:15:39;101421.42;;;19.01;34.03
39954;BME280;25631;51.516;-0.470;2023-07-13T10:18:15;101418.26;;;19.00;34.23
39954;BME280;25631;51.516;-0.470;2023-07-13T10:20:55;101420.11;;;19.12;33.95
39954;BME280;25631;51.516;-0.470;2023-07-13T10:23:35;101415.49;;;19.03;34.07
39954;BME280;25631;51.516;-0.470;2023-07-13T10:26:16;101413.80;;;19.21;34.20
39954;BME280;25631;51.516;-0.470;2023-07-13T10:28:57;101411.98;;;19.29;33.98
39954;BME280;25631;51.516;-0.470;2023-07-13T10:31:38;101415.68;;;19.51;33.73
39954;BME280;25631;51.516;-0.470;2023-07-13T10:34:15;101415.88;;;19.45;33.22
39954;BME280;25631;51.516;-0.470;2023-07-13T10:36:52;101412.00;;;19.48;32.89
39954;BME280;25631;51.516;-0.470;2023-07-13T10:39:29;101411.55;;;19.70;33.14
39954;BME280;25631;51.516;-0.470;2023-07-13T10:42:13;101418.70;;;19.74;33.78
39954;BME280;25631;51.516;-0.470;2023-07-13T10:44:51;101431.33;;;19.41;35.88
39954;BME280;25631;51.516;-0.470;2023-07-13T10:47:28;101426.91;;;19.49;36.07
39954;BME280;25631;51.516;-0.470;2023-07-13T10:50:08;101424.23;;;19.16;36.86
39954;BME280;25631;51.516;-0.470;2023-07-13T10:52:51;101423.26;;;19.10;36.87
39954;BME280;25631;51.516;-0.470;2023-07-13T10:55:34;101420.71;;;18.90;37.84
39954;BME280;25631;51.516;-0.470;2023-07-13T10:58:14;101419.28;;;19.21;37.62
39954;BME280;25631;51.516;-0.470;2023-07-13T11:00:57;101419.77;;;19.10;38.02
39954;BME280;25631;51.516;-0.470;2023-07-13T11:03:37;101420.15;;;18.88;37.73
39954;BME280;25631;51.516;-0.470;2023-07-13T11:06:16;101417.49;;;19.33;37.36
39954;BME280;25631;51.516;-0.470;2023-07-13T11:08:54;101415.45;;;19.21;36.79
39954;BME280;25631;51.516;-0.470;2023-07-13T11:11:35;101407.47;;;19.48;36.32
39954;BME280;25631;51.516;-0.470;2023-07-13T11:14:30;101409.63;;;19.85;35.51
39954;BME280;25631;51.516;-0.470;2023-07-13T11:18:24;101410.14;;;19.77;34.43
39954;BME280;25631;51.516;-0.470;2023-07-13T11:21:14;101412.91;;;20.05;33.69
39954;BME280;25631;51.516;-0.470;2023-07-13T11:23:53;101406.84;;;19.96;33.98
39954;BME280;25631;51.516;-0.470;2023-07-13T11:26:39;101410.77;;;19.83;34.45
39954;BME280;25631;51.516;-0.470;2023-07-13T11:29:27;101404.04;;;20.42;33.69
39954;BME280;25631;51.516;-0.470;2023-07-13T11:32:23;101398.35;;;20.50;33.20
39954;BME280;25631;51.516;-0.470;2023-07-13T11:34:59;101400.48;;;20.46;32.72
39954;BME280;25631;51.516;-0.470;2023-07-13T11:37:38;101401.03;;;20.49;32.42
39954;BME280;25631;51.516;-0.470;2023-07-13T11:40:15;101406.93;;;20.36;31.55
39954;BME280;25631;51.516;-0.470;2023-07-13T11:42:52;101403.59;;;20.59;30.90
39954;BME280;25631;51.516;-0.470;2023-07-13T11:45:28;101402.80;;;20.37;31.04
39954;BME280;25631;51.516;-0.470;2023-07-13T11:48:05;101405.38;;;20.30;31.37
39954;BME280;25631;51.516;-0.470;2023-07-13T11:50:41;101404.16;;;20.70;30.82
39954;BME280;25631;51.516;-0.470;2023-07-13T11:53:18;101401.06;;;20.67;29.76
39954;BME280;25631;51.516;-0.470;2023-07-13T11:55:55;101392.19;;;20.95;29.91
39954;BME280;25631;51.516;-0.470;2023-07-13T11:58:33;101392.86;;;21.21;30.13
39954;BME280;25631;51.516;-0.470;2023-07-13T12:01:18;101394.25;;;20.91;30.56
39954;BME280;25631;51.516;-0.470;2023-07-13T12:03:55;101389.80;;;21.45;30.24
39954;BME280;25631;51.516;-0.470;2023-07-13T12:06:35;101386.99;;;21.60;30.45
39954;BME280;25631;51.516;-0.470;2023-07-13T12:09:14;101387.48;;;21.49;30.01
39954;BME280;25631;51.516;-0.470;2023-07-13T12:11:51;101382.15;;;21.25;29.09
39954;BME280;25631;51.516;-0.470;2023-07-13T12:14:28;101380.66;;;21.04;28.96
39954;BME280;25631;51.516;-0.470;2023-07-13T12:17:10;101378.46;;;21.35;28.97
39954;BME280;25631;51.516;-0.470;2023-07-13T12:19:49;101374.84;;;21.32;29.19
39954;BME280;25631;51.516;-0.470;2023-07-13T12:22:27;101375.05;;;21.35;29.81
39954;BME280;25631;51.516;-0.470;2023-07-13T12:25:04;101379.23;;;21.05;31.03
39954;BME280;25631;51.516;-0.470;2023-07-13T12:27:41;101378.20;;;20.65;31.19
39954;BME280;25631;51.516;-0.470;2023-07-13T12:30:26;101379.71;;;20.78;31.42
39954;BME280;25631;51.516;-0.470;2023-07-13T12:33:07;101385.46;;;20.94;31.57
39954;BME280;25631;51.516;-0.470;2023-07-13T12:35:47;101380.23;;;21.03;31.17
39954;BME280;25631;51.516;-0.470;2023-07-13T12:38:24;101382.20;;;21.25;31.02
39954;BME280;25631;51.516;-0.470;2023-07-13T12:41:02;101381.33;;;20.75;31.10
39954;BME280;25631;51.516;-0.470;2023-07-13T12:43:39;101386.04;;;21.02;31.30
39954;BME280;25631;51.516;-0.470;2023-07-13T12:46:18;101378.42;;;20.89;31.62
39954;BME280;25631;51.516;-0.470;2023-07-13T12:48:57;101381.25;;;20.74;31.94
39954;BME280;25631;51.516;-0.470;2023-07-13T12:51:34;101378.29;;;21.06;31.98
39954;BME280;25631;51.516;-0.470;2023-07-13T12:54:16;101373.73;;;20.95;32.83
39954;BME280;25631;51.516;-0.470;2023-07-13T12:56:53;101370.30;;;21.25;32.78
39954;BME280;25631;51.516;-0.470;2023-07-13T12:59:31;101370.30;;;21.27;32.00
39954;BME280;25631;51.516;-0.470;2023-07-13T13:02:25;101363.32;;;21.30;31.35
39954;BME280;25631;51.516;-0.470;2023-07-13T13:05:03;101361.37;;;21.32;31.09
39954;BME280;25631;51.516;-0.470;2023-07-13T13:07:39;101360.57;;;21.13;30.48
39954;BME280;25631;51.516;-0.470;2023-07-13T13:10:16;101364.39;;;20.99;30.30
39954;BME280;25631;51.516;-0.470;2023-07-13T13:12:53;101360.34;;;21.02;30.38
39954;BME280;25631;51.516;-0.470;2023-07-13T13:15:29;101364.57;;;20.46;30.59
39954;BME280;25631;51.516;-0.470;2023-07-13T13:18:15;101363.24;;;20.50;31.03
39954;BME280;25631;51.516;-0.470;2023-07-13T13:20:52;101364.20;;;20.60;31.08
39954;BME280;25631;51.516;-0.470;2023-07-13T13:23:28;101363.17;;;20.57;31.37
39954;BME280;25631;51.516;-0.470;2023-07-13T13:26:10;101367.55;;;20.65;31.14
39954;BME280;25631;51.516;-0.470;2023-07-13T13:28:47;101362.47;;;20.45;31.20
39954;BME280;25631;51.516;-0.470;2023-07-13T13:31:23;101362.91;;;20.55;31.23
39954;BME280;25631;51.516;-0.470;2023-07-13T13:34:00;101363.22;;;20.52;31.50
39954;BME280;25631;51.516;-0.470;2023-07-13T13:36:37;101362.45;;;20.05;31.67